KDKK

Chautauqua County/Dunkirk Airport

Dunkirk, New York, USA
METAR KDKK 161422Z AUTO 32010KT 1/4SM +SN FZFG VV004 M02/M02 A2994 RMK AO2 P0002 T10171017 $
Observed Flight Rules
Dec-16 @ 14:22 UTC (20 minutes ago) Instrument Flight Rules
Wind Visibility Clouds Conditions
320° at 10 knots 1/4 miles
  • Vertical visibility at 400' AGL
  • Heavy Snow
  • Freezing
  • Fog
Temperatures Readings Precipitation
Current -2°C / 28°F
Dewpoint -2°C / 28°F
Humidity 100%
Altimeter 29.94" Hg
Pressure 1014 hPa
Elevation 202
Current Rain 0.02
METAR KDKK 161422Z AUTO 32010KT 1/4SM +SN FZFG VV004 M02/M02 A2994 RMK AO2 P0002 T10171017 $
Observed Flight Rules
Dec-16 @ 14:22 UTC
(20 minutes ago)
LIFR
Wind Visibility
320° at 10 knots 1/4 miles
Clouds
  • Vertical visibility at 400' AGL
Conditions
  • Heavy Snow
  • Freezing
  • Fog
Temperature Dewpoint
-2°C / 28°F -2°C / 28°F
Humidity Altimeter Pressure
100% 29.94" Hg 1014 hPa
Current Rain
0.02